createdAt,value
2017-12-02T00:00:04.576Z,125.10
2017-12-02T00:01:04.550Z,107.60
2017-12-02T00:02:04.529Z,173.70
2017-12-02T00:03:04.506Z,152.80
2017-12-02T00:04:04.481Z,113.80
2017-12-02T00:05:04.454Z,165.70
2017-12-02T00:06:04.432Z,251.80
2017-12-02T00:07:04.412Z,128.40
2017-12-02T00:08:04.399Z,121.00
2017-12-02T00:09:04.362Z,141.00
2017-12-02T00:10:04.342Z,117.80
2017-12-02T00:11:04.318Z,143.30
2017-12-02T00:12:04.295Z,175.70
2017-12-02T00:13:04.273Z,113.40
2017-12-02T00:14:04.253Z,93.60
2017-12-02T00:15:04.220Z,152.20
2017-12-02T00:16:04.205Z,121.80
2017-12-02T00:17:04.177Z,112.30
2017-12-02T00:18:04.150Z,324.40
2017-12-02T00:19:04.132Z,180.10
2017-12-02T00:20:04.106Z,245.10
2017-12-02T00:21:04.082Z,142.60
2017-12-02T00:22:04.059Z,280.00
2017-12-02T00:23:04.041Z,244.10
2017-12-02T00:24:04.020Z,178.00
2017-12-02T00:25:03.994Z,116.10
2017-12-02T00:26:03.972Z,95.80
2017-12-02T00:27:03.941Z,96.20
2017-12-02T00:28:03.915Z,89.40
2017-12-02T00:29:03.902Z,125.80
2017-12-02T00:30:03.871Z,97.70
2017-12-02T00:31:03.852Z,103.00
2017-12-02T00:32:03.823Z,191.90
2017-12-02T00:33:03.805Z,158.30
2017-12-02T00:34:03.785Z,267.70
2017-12-02T00:35:03.756Z,146.00
2017-12-02T00:36:03.731Z,153.90
2017-12-02T00:37:03.710Z,204.40
2017-12-02T00:38:03.686Z,166.80
2017-12-02T00:39:03.676Z,138.30
2017-12-02T00:40:03.643Z,117.40
2017-12-02T00:41:03.627Z,286.80
2017-12-02T00:42:03.594Z,156.80
2017-12-02T00:43:03.573Z,131.20
2017-12-02T00:44:03.544Z,134.70
2017-12-02T00:45:03.534Z,121.60
2017-12-02T00:46:03.501Z,176.20
2017-12-02T00:47:03.481Z,131.10
2017-12-02T00:48:03.454Z,161.10
2017-12-02T00:49:03.426Z,115.60
2017-12-02T00:50:03.405Z,109.90
2017-12-02T00:51:03.380Z,103.60
2017-12-02T00:52:03.352Z,75.20
2017-12-02T00:53:03.329Z,86.80
2017-12-02T00:54:03.309Z,98.10
2017-12-02T00:55:03.280Z,84.60
2017-12-02T00:56:03.258Z,70.60
2017-12-02T00:57:03.252Z,160.00
2017-12-02T00:58:03.211Z,161.70
2017-12-02T00:59:03.188Z,155.10
2017-12-02T01:00:03.166Z,112.20
2017-12-02T01:01:03.143Z,167.70
2017-12-02T01:02:03.120Z,141.10
2017-12-02T01:03:03.094Z,101.40
2017-12-02T01:04:03.076Z,123.00
2017-12-02T01:05:03.054Z,107.90
2017-12-02T01:06:03.027Z,143.60
2017-12-02T01:07:02.999Z,157.10
2017-12-02T01:08:02.979Z,130.00
2017-12-02T01:09:02.961Z,153.20
2017-12-02T01:10:02.934Z,154.10
2017-12-02T01:11:02.914Z,187.90
2017-12-02T01:12:02.886Z,158.50
2017-12-02T01:13:02.860Z,193.80
2017-12-02T01:14:02.834Z,182.50
2017-12-02T01:15:02.828Z,102.70
2017-12-02T01:16:02.791Z,127.90
2017-12-02T01:17:02.775Z,162.40
2017-12-02T01:18:02.792Z,224.40
2017-12-02T01:19:02.722Z,272.00
2017-12-02T01:20:02.702Z,137.40
2017-12-02T01:21:02.674Z,136.70
2017-12-02T01:22:02.651Z,130.10
2017-12-02T01:23:02.632Z,130.00
2017-12-02T01:24:02.701Z,149.50
2017-12-02T01:25:02.583Z,100.10
2017-12-02T01:26:02.660Z,109.80
2017-12-02T01:27:02.539Z,154.20
2017-12-02T01:28:02.511Z,126.60
2017-12-02T01:29:02.491Z,142.50
2017-12-02T01:30:02.470Z,146.70
2017-12-02T01:31:02.443Z,125.60
2017-12-02T01:32:02.539Z,95.70
2017-12-02T01:33:02.401Z,176.40
2017-12-02T01:34:02.458Z,184.90
2017-12-02T01:35:02.351Z,153.30
2017-12-02T01:36:02.329Z,84.00
2017-12-02T01:37:02.305Z,80.40
2017-12-02T01:38:02.409Z,134.40
2017-12-02T01:39:02.258Z,104.60
2017-12-02T01:40:02.237Z,124.50
2017-12-02T01:41:02.212Z,80.10
2017-12-02T01:42:02.361Z,185.90
2017-12-02T01:43:02.177Z,102.90
2017-12-02T01:44:02.147Z,107.10
2017-12-02T01:45:02.125Z,116.90
2017-12-02T01:46:02.100Z,98.80
2017-12-02T01:47:02.068Z,94.20
2017-12-02T01:48:02.044Z,104.40
2017-12-02T01:49:02.021Z,121.00
2017-12-02T01:50:02.004Z,103.50
2017-12-02T01:51:01.983Z,71.70
2017-12-02T01:52:01.966Z,89.70
2017-12-02T01:53:01.933Z,69.90
2017-12-02T01:54:01.906Z,82.10
2017-12-02T01:55:01.886Z,77.70
2017-12-02T01:56:01.863Z,66.40
2017-12-02T01:57:01.838Z,69.70
2017-12-02T01:58:01.815Z,89.90
2017-12-02T01:59:01.791Z,82.00
2017-12-02T02:00:01.769Z,95.10
2017-12-02T02:01:01.745Z,100.80
2017-12-02T02:02:01.721Z,110.60
2017-12-02T02:03:01.696Z,132.10
2017-12-02T02:04:01.674Z,70.30
2017-12-02T02:05:01.665Z,105.40
2017-12-02T02:06:01.629Z,127.60
2017-12-02T02:07:01.606Z,75.80
2017-12-02T02:08:01.582Z,72.40
2017-12-02T02:09:01.565Z,73.80
2017-12-02T02:10:01.576Z,88.70
2017-12-02T02:11:01.512Z,91.90
2017-12-02T02:12:01.488Z,147.00
2017-12-02T02:13:01.466Z,132.80
2017-12-02T02:14:01.438Z,93.50
2017-12-02T02:15:01.424Z,117.10
2017-12-02T02:16:01.393Z,113.80
2017-12-02T02:17:01.373Z,91.90
2017-12-02T02:18:01.349Z,134.90
2017-12-02T02:19:01.331Z,127.90
2017-12-02T02:20:01.303Z,94.60
2017-12-02T02:21:01.280Z,74.50
2017-12-02T02:22:01.272Z,99.60
2017-12-02T02:23:01.234Z,73.10
2017-12-02T02:24:01.210Z,102.90
2017-12-02T02:25:01.192Z,119.60
2017-12-02T02:26:01.172Z,89.70
2017-12-02T02:27:01.143Z,75.00
2017-12-02T02:28:01.124Z,77.20
2017-12-02T02:29:01.096Z,67.60
2017-12-02T02:30:01.069Z,56.30
2017-12-02T02:31:01.047Z,143.60
2017-12-02T02:32:01.022Z,231.70
2017-12-02T02:33:01.007Z,127.10
2017-12-02T02:34:00.975Z,124.50
2017-12-02T02:35:00.950Z,98.80
2017-12-02T02:36:00.929Z,156.70
2017-12-02T02:37:00.906Z,180.10
2017-12-02T02:38:00.883Z,92.10
2017-12-02T02:39:00.867Z,135.80
2017-12-02T02:40:00.843Z,271.00
2017-12-02T02:41:00.812Z,105.10
2017-12-02T02:42:00.793Z,181.80
2017-12-02T02:43:00.766Z,145.20
2017-12-02T02:44:00.741Z,244.60
2017-12-02T02:45:00.720Z,272.10
2017-12-02T02:46:00.700Z,147.30
2017-12-02T02:47:00.675Z,164.10
2017-12-02T02:48:00.650Z,127.40
2017-12-02T02:49:00.629Z,270.10
2017-12-02T02:50:00.606Z,104.50
2017-12-02T02:51:00.583Z,263.50
2017-12-02T02:52:00.561Z,174.10
2017-12-02T02:53:00.535Z,452.30
2017-12-02T02:54:00.524Z,181.50
2017-12-02T02:55:00.486Z,452.80
2017-12-02T02:56:00.462Z,241.50
2017-12-02T02:57:00.443Z,273.50
2017-12-02T02:58:00.424Z,349.60
2017-12-02T02:59:00.405Z,198.00
2017-12-02T03:00:00.371Z,303.10
2017-12-02T03:01:00.399Z,200.60
2017-12-02T03:02:00.322Z,171.20
2017-12-02T03:03:00.353Z,147.50
2017-12-02T03:04:00.286Z,156.50
2017-12-02T03:05:00.272Z,181.30
2017-12-02T03:06:00.234Z,149.80
2017-12-02T03:07:00.256Z,244.70
2017-12-02T03:08:00.183Z,213.20
2017-12-02T03:09:00.162Z,96.80
2017-12-02T03:10:00.139Z,115.70
2017-12-02T03:11:00.168Z,81.30
2017-12-02T03:12:00.095Z,83.50
2017-12-02T03:13:00.168Z,77.60
2017-12-02T03:14:00.049Z,87.00
2017-12-02T03:15:00.027Z,98.60
2017-12-02T03:16:00.015Z,98.00
2017-12-02T03:16:59.978Z,101.20
2017-12-02T03:17:59.956Z,124.20
2017-12-02T03:18:59.930Z,81.90
2017-12-02T03:19:59.909Z,77.00
2017-12-02T03:20:59.889Z,145.70
2017-12-02T03:21:59.867Z,62.40
2017-12-02T03:22:59.843Z,214.90
2017-12-02T03:23:59.815Z,140.00
2017-12-02T03:24:59.798Z,134.60
2017-12-02T03:25:59.767Z,95.80
2017-12-02T03:26:59.755Z,98.70
2017-12-02T03:27:59.726Z,103.10
2017-12-02T03:28:59.701Z,87.20
2017-12-02T03:29:59.681Z,112.60
2017-12-02T03:30:59.652Z,91.30
2017-12-02T03:31:59.628Z,77.20
2017-12-02T03:32:59.610Z,153.90
2017-12-02T03:33:59.582Z,131.90
2017-12-02T03:34:59.563Z,121.20
2017-12-02T03:35:59.541Z,93.50
2017-12-02T03:36:59.515Z,146.80
2017-12-02T03:37:59.494Z,148.30
2017-12-02T03:38:59.473Z,138.80
2017-12-02T03:39:59.444Z,239.80
2017-12-02T03:40:59.421Z,220.40
2017-12-02T03:41:59.407Z,91.40
2017-12-02T03:42:59.376Z,99.40
2017-12-02T03:43:59.355Z,172.20
2017-12-02T03:44:59.330Z,167.60
2017-12-02T03:45:59.304Z,208.90
2017-12-02T03:46:59.282Z,173.00
2017-12-02T03:47:59.258Z,430.60
2017-12-02T03:48:59.233Z,157.60
2017-12-02T03:49:59.218Z,337.50
2017-12-02T03:50:59.199Z,266.50
2017-12-02T03:51:59.166Z,132.50
2017-12-02T03:52:59.145Z,230.00
2017-12-02T03:53:59.114Z,190.80
2017-12-02T03:54:59.090Z,207.80
2017-12-02T03:55:59.130Z,216.60
2017-12-02T03:56:59.052Z,158.20
2017-12-02T03:57:59.023Z,109.60
2017-12-02T03:58:59.006Z,163.90
2017-12-02T03:59:58.978Z,117.60
2017-12-02T04:00:58.953Z,190.20
2017-12-02T04:01:58.932Z,80.90
2017-12-02T04:02:58.910Z,130.50
2017-12-02T04:03:58.882Z,167.60
2017-12-02T04:04:58.863Z,87.70
2017-12-02T04:05:58.837Z,113.80
2017-12-02T04:06:58.814Z,63.80
2017-12-02T04:07:58.789Z,78.80
2017-12-02T04:08:58.769Z,162.80
2017-12-02T04:09:58.744Z,160.60
2017-12-02T04:10:58.717Z,77.10
2017-12-02T04:11:58.694Z,94.90
2017-12-02T04:12:58.673Z,119.30
2017-12-02T04:13:58.653Z,147.30
2017-12-02T04:14:58.631Z,235.60
2017-12-02T04:15:58.604Z,110.80
2017-12-02T04:16:58.584Z,106.10
2017-12-02T04:17:58.554Z,175.40
2017-12-02T04:18:58.544Z,106.80
2017-12-02T04:19:58.513Z,100.90
2017-12-02T04:20:58.483Z,129.10
2017-12-02T04:21:58.465Z,103.10
2017-12-02T04:22:58.441Z,183.50
2017-12-02T04:23:58.413Z,148.80
2017-12-02T04:24:58.393Z,78.60
2017-12-02T04:25:58.362Z,74.20
2017-12-02T04:26:58.344Z,86.50
2017-12-02T04:27:58.320Z,98.40
2017-12-02T04:28:58.303Z,123.30
2017-12-02T04:29:58.272Z,150.60
2017-12-02T04:30:58.252Z,306.10
2017-12-02T04:31:58.227Z,176.50
2017-12-02T04:32:58.203Z,146.60
2017-12-02T04:33:58.183Z,140.90
2017-12-02T04:34:58.153Z,120.20
2017-12-02T04:35:58.133Z,169.90
2017-12-02T04:36:58.106Z,134.50
2017-12-02T04:37:58.082Z,135.20
2017-12-02T04:38:58.061Z,152.50
2017-12-02T04:39:58.040Z,72.20
2017-12-02T04:40:58.014Z,67.30
2017-12-02T04:41:57.989Z,70.60
2017-12-02T04:42:57.968Z,117.20
2017-12-02T04:43:57.944Z,111.60
2017-12-02T04:44:57.920Z,69.90
2017-12-02T04:45:57.904Z,62.90
2017-12-02T04:46:57.880Z,83.00
2017-12-02T04:47:57.854Z,109.10
2017-12-02T04:48:57.825Z,88.60
2017-12-02T04:49:57.805Z,76.70
2017-12-02T04:50:57.795Z,86.30
2017-12-02T04:51:57.763Z,239.20
2017-12-02T04:52:57.733Z,94.00
2017-12-02T04:53:57.714Z,117.20
2017-12-02T04:54:57.691Z,131.60
2017-12-02T04:55:57.665Z,114.70
2017-12-02T04:56:57.643Z,80.30
2017-12-02T04:57:57.619Z,71.00
2017-12-02T04:58:57.594Z,82.30
2017-12-02T04:59:57.575Z,116.70
2017-12-02T05:00:57.549Z,77.50
2017-12-02T05:01:57.522Z,73.00
2017-12-02T05:02:57.502Z,67.70
2017-12-02T05:03:57.479Z,67.90
2017-12-02T05:04:57.463Z,84.90
2017-12-02T05:05:57.434Z,78.00
2017-12-02T05:06:57.412Z,96.60
2017-12-02T05:07:57.383Z,68.30
2017-12-02T05:08:57.369Z,90.10
2017-12-02T05:09:57.335Z,97.00
2017-12-02T05:10:57.314Z,81.70
2017-12-02T05:11:57.293Z,100.20
2017-12-02T05:12:57.273Z,109.50
2017-12-02T05:13:57.244Z,147.20
2017-12-02T05:14:57.224Z,289.20
2017-12-02T05:15:57.194Z,132.20
2017-12-02T05:16:57.173Z,132.50
2017-12-02T05:17:57.153Z,128.90
2017-12-02T05:18:57.123Z,164.30
2017-12-02T05:19:57.104Z,152.80
2017-12-02T05:20:57.080Z,155.00
2017-12-02T05:21:57.055Z,121.20
2017-12-02T05:22:57.034Z,103.90
2017-12-02T05:23:57.099Z,66.10
2017-12-02T05:24:56.985Z,64.20
2017-12-02T05:25:57.047Z,182.70
2017-12-02T05:26:56.935Z,132.30
2017-12-02T05:27:56.915Z,124.00
2017-12-02T05:28:56.893Z,179.10
2017-12-02T05:29:56.991Z,230.80
2017-12-02T05:30:56.846Z,165.70
2017-12-02T05:31:56.818Z,158.40
2017-12-02T05:32:56.793Z,179.70
2017-12-02T05:33:56.893Z,212.10
2017-12-02T05:34:56.750Z,156.60
2017-12-02T05:35:56.723Z,98.50
2017-12-02T05:36:56.702Z,102.60
2017-12-02T05:37:56.675Z,200.20
2017-12-02T05:38:56.653Z,131.50
2017-12-02T05:39:56.628Z,98.20
2017-12-02T05:40:56.605Z,72.10
2017-12-02T05:41:56.579Z,116.60
2017-12-02T05:42:56.555Z,93.20
2017-12-02T05:43:56.537Z,72.70
2017-12-02T05:44:56.514Z,79.00
2017-12-02T05:45:56.484Z,92.10
2017-12-02T05:46:56.465Z,82.50
2017-12-02T05:47:56.439Z,58.50
2017-12-02T05:48:56.415Z,80.50
2017-12-02T05:49:56.393Z,81.60
2017-12-02T05:50:56.364Z,75.60
2017-12-02T05:51:56.343Z,117.90
2017-12-02T05:52:56.321Z,152.80
2017-12-02T05:53:56.292Z,168.40
2017-12-02T05:54:56.273Z,104.80
2017-12-02T05:55:56.252Z,126.10
2017-12-02T05:56:56.225Z,105.70
2017-12-02T05:57:56.211Z,135.50
2017-12-02T05:58:56.183Z,129.60
2017-12-02T05:59:56.153Z,121.10
2017-12-02T06:00:56.135Z,97.60
2017-12-02T06:01:56.109Z,91.70
2017-12-02T06:02:56.083Z,87.90
2017-12-02T06:03:56.059Z,62.60
2017-12-02T06:04:56.037Z,58.90
2017-12-02T06:05:56.025Z,73.90
2017-12-02T06:06:55.993Z,65.10
2017-12-02T06:07:55.967Z,82.20
2017-12-02T06:08:55.944Z,79.20
2017-12-02T06:09:55.927Z,79.50
2017-12-02T06:10:55.896Z,56.80
2017-12-02T06:11:55.875Z,100.20
2017-12-02T06:12:56.096Z,129.20
2017-12-02T06:13:55.825Z,102.80
2017-12-02T06:14:55.803Z,122.70
2017-12-02T06:15:55.777Z,115.60
2017-12-02T06:16:55.761Z,61.50
2017-12-02T06:17:55.729Z,65.20
2017-12-02T06:18:55.710Z,109.30
2017-12-02T06:19:55.682Z,86.20
2017-12-02T06:20:55.662Z,90.00
2017-12-02T06:21:55.634Z,110.20
2017-12-02T06:22:55.612Z,57.70
2017-12-02T06:23:55.588Z,67.40
2017-12-02T06:24:55.562Z,70.80
2017-12-02T06:25:55.543Z,86.30
2017-12-02T06:26:55.523Z,72.30
2017-12-02T06:27:55.492Z,90.30
2017-12-02T06:28:55.469Z,83.70
2017-12-02T06:29:55.444Z,68.00
2017-12-02T06:30:55.424Z,81.10
2017-12-02T06:31:55.399Z,112.20
2017-12-02T06:32:55.378Z,71.40
2017-12-02T06:33:55.353Z,91.50
2017-12-02T06:34:55.330Z,73.60
2017-12-02T06:35:55.308Z,95.90
2017-12-02T06:36:55.284Z,74.90
2017-12-02T06:37:55.258Z,135.90
2017-12-02T06:38:55.283Z,132.60
2017-12-02T06:39:55.216Z,88.20
2017-12-02T06:40:55.242Z,98.00
2017-12-02T06:41:55.164Z,79.50
2017-12-02T06:42:55.143Z,95.10
2017-12-02T06:43:55.123Z,62.00
2017-12-02T06:44:55.095Z,58.50
2017-12-02T06:45:55.074Z,63.60
2017-12-02T06:46:55.145Z,60.00
2017-12-02T06:47:55.034Z,64.20
2017-12-02T06:48:55.001Z,64.30
2017-12-02T06:49:54.974Z,60.00
2017-12-02T06:50:54.998Z,56.70
2017-12-02T06:51:54.933Z,58.60
2017-12-02T06:52:54.915Z,52.20
2017-12-02T06:53:54.885Z,51.60
2017-12-02T06:54:54.860Z,54.60
2017-12-02T06:55:54.839Z,54.90
2017-12-02T06:56:54.915Z,70.60
2017-12-02T06:57:54.788Z,64.40
2017-12-02T06:58:54.788Z,78.00
2017-12-02T06:59:54.740Z,113.30
2017-12-02T07:00:54.819Z,77.90
2017-12-02T07:01:54.697Z,67.70
2017-12-02T07:02:54.769Z,76.00
2017-12-02T07:03:54.650Z,63.10
2017-12-02T07:04:54.625Z,50.20
2017-12-02T07:05:54.606Z,51.30
2017-12-02T07:06:54.640Z,66.50
2017-12-02T07:07:54.555Z,56.20
2017-12-02T07:08:54.635Z,59.60
2017-12-02T07:09:54.504Z,53.90
2017-12-02T07:10:54.505Z,59.90
2017-12-02T07:11:54.463Z,64.00
2017-12-02T07:12:54.436Z,81.20
2017-12-02T07:13:54.413Z,64.30
2017-12-02T07:14:54.473Z,80.70
2017-12-02T07:15:54.363Z,93.30
2017-12-02T07:16:54.346Z,67.10
2017-12-02T07:17:54.321Z,65.60
2017-12-02T07:18:54.307Z,71.50
2017-12-02T07:19:54.269Z,70.70
2017-12-02T07:20:54.310Z,79.60
2017-12-02T07:21:54.224Z,101.60
2017-12-02T07:22:54.197Z,80.90
2017-12-02T07:23:54.174Z,105.70
2017-12-02T07:24:54.154Z,95.20
2017-12-02T07:25:54.144Z,86.70
2017-12-02T07:26:54.105Z,75.90
2017-12-02T07:27:54.094Z,91.90
2017-12-02T07:28:54.065Z,102.40
2017-12-02T07:29:54.034Z,99.70
2017-12-02T07:30:54.008Z,87.60
2017-12-02T07:31:53.985Z,101.50
2017-12-02T07:32:53.960Z,100.10
2017-12-02T07:33:53.944Z,114.20
2017-12-02T07:34:53.912Z,98.10
2017-12-02T07:35:53.889Z,105.10
2017-12-02T07:36:53.865Z,88.70
2017-12-02T07:37:53.843Z,96.00
2017-12-02T07:38:53.818Z,96.20
2017-12-02T07:39:53.795Z,116.20
2017-12-02T07:40:53.773Z,92.60
2017-12-02T07:41:53.753Z,65.10
2017-12-02T07:42:53.726Z,64.20
2017-12-02T07:43:53.702Z,76.60
2017-12-02T07:44:53.673Z,67.30
2017-12-02T07:45:53.657Z,61.00
2017-12-02T07:46:53.624Z,63.60
2017-12-02T07:47:53.607Z,59.00
2017-12-02T07:48:53.584Z,56.60
2017-12-02T07:49:53.554Z,79.60
2017-12-02T07:50:53.533Z,73.20
2017-12-02T07:51:53.513Z,60.60
2017-12-02T07:52:53.495Z,65.20
2017-12-02T07:53:53.465Z,65.00
2017-12-02T07:54:53.438Z,91.40
2017-12-02T07:55:53.418Z,74.60
2017-12-02T07:56:53.389Z,76.70
2017-12-02T07:57:53.372Z,78.50
2017-12-02T07:58:53.344Z,71.80
2017-12-02T07:59:53.322Z,76.70
2017-12-02T08:00:53.297Z,61.50
2017-12-02T08:01:53.270Z,60.20
2017-12-02T08:02:53.250Z,59.30
2017-12-02T08:03:53.223Z,72.50
2017-12-02T08:04:53.203Z,86.20
2017-12-02T08:05:53.183Z,97.70
2017-12-02T08:06:53.152Z,72.60
2017-12-02T08:07:53.134Z,64.70
2017-12-02T08:08:53.112Z,63.30
2017-12-02T08:09:53.084Z,56.30
2017-12-02T08:10:53.074Z,68.40
2017-12-02T08:11:53.034Z,60.60
2017-12-02T08:12:53.014Z,58.30
2017-12-02T08:13:52.996Z,55.80
2017-12-02T08:14:52.972Z,60.90
2017-12-02T08:15:52.945Z,56.70
2017-12-02T08:16:52.922Z,72.10
2017-12-02T08:17:52.897Z,68.10
2017-12-02T08:18:52.884Z,72.10
2017-12-02T08:19:52.856Z,62.90
2017-12-02T08:20:52.828Z,69.80
2017-12-02T08:21:52.800Z,61.70
2017-12-02T08:22:52.785Z,64.30
2017-12-02T08:23:52.804Z,56.40
2017-12-02T08:24:52.736Z,66.90
2017-12-02T08:25:52.712Z,65.50
2017-12-02T08:26:52.682Z,53.00
2017-12-02T08:27:52.665Z,56.70
2017-12-02T08:28:52.649Z,53.20
2017-12-02T08:29:52.614Z,73.30
2017-12-02T08:30:52.591Z,78.30
2017-12-02T08:31:52.574Z,60.60
2017-12-02T08:32:52.547Z,54.70
2017-12-02T08:33:52.522Z,53.10
2017-12-02T08:34:52.498Z,57.10
2017-12-02T08:35:52.474Z,52.50
2017-12-02T08:36:52.456Z,54.30
2017-12-02T08:37:52.754Z,65.50
2017-12-02T08:38:52.407Z,60.10
2017-12-02T08:39:52.425Z,56.00
2017-12-02T08:40:52.353Z,54.00
2017-12-02T08:41:52.334Z,45.10
2017-12-02T08:42:52.318Z,56.10
2017-12-02T08:43:52.289Z,49.60
2017-12-02T08:44:52.267Z,54.90
2017-12-02T08:45:52.242Z,53.30
2017-12-02T08:46:52.214Z,53.30
2017-12-02T08:47:52.196Z,52.30
2017-12-02T08:48:52.175Z,49.40
2017-12-02T08:49:52.150Z,48.70
2017-12-02T08:50:52.136Z,47.50
2017-12-02T08:51:52.107Z,51.40
2017-12-02T08:52:52.078Z,45.90
2017-12-02T08:53:52.053Z,50.40
2017-12-02T08:54:52.038Z,50.40
2017-12-02T08:55:52.005Z,51.70
2017-12-02T08:56:51.981Z,47.30
2017-12-02T08:57:51.963Z,49.90
2017-12-02T08:58:51.936Z,47.10
2017-12-02T08:59:51.913Z,52.70
2017-12-02T09:00:51.890Z,46.80
2017-12-02T09:01:51.864Z,55.20
2017-12-02T09:02:51.841Z,52.70
2017-12-02T09:03:51.819Z,51.40
2017-12-02T09:04:51.794Z,54.70
2017-12-02T09:05:51.772Z,56.00
2017-12-02T09:06:51.746Z,55.40
2017-12-02T09:07:51.720Z,53.30
2017-12-02T09:08:51.703Z,72.20
2017-12-02T09:09:51.676Z,76.10
2017-12-02T09:10:51.652Z,61.90
2017-12-02T09:11:51.628Z,56.50
2017-12-02T09:12:51.606Z,60.10
2017-12-02T09:13:51.586Z,58.70
2017-12-02T09:14:51.560Z,57.60
2017-12-02T09:15:51.541Z,64.30
2017-12-02T09:16:51.512Z,56.80
2017-12-02T09:17:51.486Z,65.30
2017-12-02T09:18:51.464Z,59.30
2017-12-02T09:19:51.441Z,50.60
2017-12-02T09:20:51.416Z,58.30
2017-12-02T09:21:51.394Z,54.40
2017-12-02T09:22:51.375Z,60.20
2017-12-02T09:23:51.345Z,58.70
2017-12-02T09:24:51.323Z,57.10
2017-12-02T09:25:51.293Z,64.20
2017-12-02T09:26:51.274Z,60.80
2017-12-02T09:27:51.248Z,55.40
2017-12-02T09:28:51.235Z,55.30
2017-12-02T09:29:51.206Z,53.30
2017-12-02T09:30:51.184Z,53.20
2017-12-02T09:31:51.156Z,63.30
2017-12-02T09:32:51.152Z,82.40
2017-12-02T09:33:51.122Z,91.60
2017-12-02T09:34:51.085Z,79.80
2017-12-02T09:35:51.058Z,74.50
2017-12-02T09:36:51.046Z,66.50
2017-12-02T09:37:51.024Z,62.10
2017-12-02T09:38:50.996Z,55.20
2017-12-02T09:39:50.967Z,52.00
2017-12-02T09:40:50.946Z,55.50
2017-12-02T09:41:50.920Z,57.50
2017-12-02T09:42:51.153Z,54.40
2017-12-02T09:43:50.868Z,52.00
2017-12-02T09:44:50.847Z,51.10
2017-12-02T09:45:50.823Z,52.50
2017-12-02T09:46:50.803Z,46.70
2017-12-02T09:47:50.786Z,43.90
2017-12-02T09:48:50.754Z,42.70
2017-12-02T09:49:50.731Z,42.10
2017-12-02T09:50:50.703Z,43.70
2017-12-02T09:51:50.685Z,50.00
2017-12-02T09:52:50.665Z,43.10
2017-12-02T09:53:50.634Z,39.90
2017-12-02T09:54:50.623Z,39.50
2017-12-02T09:55:50.591Z,47.60
2017-12-02T09:56:50.566Z,43.50
2017-12-02T09:57:50.546Z,47.40
2017-12-02T09:58:50.525Z,45.00
2017-12-02T09:59:50.497Z,45.80
2017-12-02T10:00:50.471Z,47.80
2017-12-02T10:01:50.455Z,45.60
2017-12-02T10:02:50.427Z,48.40
2017-12-02T10:03:50.406Z,43.00
2017-12-02T10:04:50.382Z,45.80
2017-12-02T10:05:50.356Z,51.10
2017-12-02T10:06:50.344Z,60.80
2017-12-02T10:07:50.317Z,46.60
2017-12-02T10:08:50.282Z,51.20
2017-12-02T10:09:50.263Z,45.00
2017-12-02T10:10:50.237Z,47.40
2017-12-02T10:11:50.218Z,47.60
2017-12-02T10:12:50.189Z,56.90
2017-12-02T10:13:50.167Z,37.90
2017-12-02T10:14:50.146Z,50.20
2017-12-02T10:15:50.116Z,45.60
2017-12-02T10:16:50.092Z,40.10
2017-12-02T10:17:50.070Z,36.50
2017-12-02T10:18:50.043Z,41.10
2017-12-02T10:19:50.026Z,42.30
2017-12-02T10:20:50.002Z,52.10
2017-12-02T10:21:49.969Z,44.90
2017-12-02T10:22:49.949Z,42.00
2017-12-02T10:23:49.926Z,48.10
2017-12-02T10:24:49.906Z,52.90
2017-12-02T10:25:49.883Z,49.60
2017-12-02T10:26:49.856Z,52.60
2017-12-02T10:27:49.827Z,49.60
2017-12-02T10:28:49.812Z,43.10
2017-12-02T10:29:49.783Z,45.50
2017-12-02T10:30:50.015Z,51.90
2017-12-02T10:31:49.731Z,45.90
2017-12-02T10:32:49.706Z,46.80
2017-12-02T10:33:49.683Z,46.40
2017-12-02T10:34:49.663Z,46.90
2017-12-02T10:35:49.647Z,52.90
2017-12-02T10:36:49.624Z,48.60
2017-12-02T10:37:49.590Z,43.00
2017-12-02T10:38:49.573Z,47.40
2017-12-02T10:39:49.538Z,44.80
2017-12-02T10:40:49.534Z,44.60
2017-12-02T10:41:49.492Z,41.10
2017-12-02T10:42:49.479Z,43.80
2017-12-02T10:43:49.446Z,42.30
2017-12-02T10:44:49.427Z,40.60
2017-12-02T10:45:49.399Z,39.60
2017-12-02T10:46:49.380Z,41.30
2017-12-02T10:47:49.352Z,41.20
2017-12-02T10:48:49.343Z,48.40
2017-12-02T10:49:49.307Z,43.40
2017-12-02T10:50:49.284Z,44.30
2017-12-02T10:51:49.257Z,42.20
2017-12-02T10:52:49.239Z,45.80
2017-12-02T10:53:49.214Z,42.70
2017-12-02T10:54:49.196Z,36.10
2017-12-02T10:55:49.162Z,39.90
2017-12-02T10:56:49.157Z,39.70
2017-12-02T10:57:49.117Z,40.90
2017-12-02T10:58:49.088Z,35.80
2017-12-02T10:59:49.077Z,41.20
2017-12-02T11:00:49.046Z,43.80
2017-12-02T11:01:49.020Z,40.70
2017-12-02T11:02:49.001Z,45.90
2017-12-02T11:03:48.982Z,44.50
2017-12-02T11:04:48.954Z,45.80
2017-12-02T11:05:48.923Z,42.00
2017-12-02T11:06:48.898Z,48.60
2017-12-02T11:07:48.884Z,45.20
2017-12-02T11:08:48.852Z,51.50
2017-12-02T11:09:48.844Z,52.40
2017-12-02T11:10:48.804Z,46.50
2017-12-02T11:11:48.793Z,45.40
2017-12-02T11:12:48.769Z,41.40
2017-12-02T11:13:48.750Z,36.60
2017-12-02T11:14:48.715Z,37.40
2017-12-02T11:15:48.686Z,38.40
2017-12-02T11:16:48.663Z,38.70
2017-12-02T11:17:48.643Z,40.10
2017-12-02T11:18:48.616Z,32.60
2017-12-02T11:19:48.590Z,36.80
2017-12-02T11:20:48.573Z,38.40
2017-12-02T11:21:48.546Z,36.10
2017-12-02T11:22:48.526Z,36.00
2017-12-02T11:23:48.499Z,41.00
2017-12-02T11:24:48.474Z,36.30
2017-12-02T11:25:48.452Z,36.40
2017-12-02T11:26:48.424Z,37.70
2017-12-02T11:27:48.402Z,40.50
2017-12-02T11:28:48.385Z,38.20
2017-12-02T11:29:48.352Z,38.60
2017-12-02T11:30:48.334Z,40.10
2017-12-02T11:31:48.310Z,32.90
2017-12-02T11:32:48.295Z,37.20
2017-12-02T11:33:48.264Z,33.00
2017-12-02T11:34:48.234Z,30.50
2017-12-02T11:35:48.214Z,34.10
2017-12-02T11:36:48.190Z,38.50
2017-12-02T11:37:48.163Z,40.10
2017-12-02T11:38:48.143Z,40.80
2017-12-02T11:39:48.118Z,52.50
2017-12-02T11:40:48.093Z,70.40
2017-12-02T11:41:48.074Z,95.90
2017-12-02T11:42:48.048Z,61.00
2017-12-02T11:43:48.026Z,50.30
2017-12-02T11:44:48.004Z,41.00
2017-12-02T11:45:47.978Z,41.40
2017-12-02T11:46:47.955Z,45.40
2017-12-02T11:47:47.930Z,41.50
2017-12-02T11:48:47.908Z,41.60
2017-12-02T11:49:47.881Z,36.90
2017-12-02T11:50:47.875Z,36.00
2017-12-02T11:51:47.847Z,35.60
2017-12-02T11:52:47.823Z,39.50
2017-12-02T11:53:47.789Z,43.00
2017-12-02T11:54:47.776Z,69.50
2017-12-02T11:55:47.743Z,68.80
2017-12-02T11:56:47.717Z,43.60
2017-12-02T11:57:47.749Z,39.80
2017-12-02T11:58:47.670Z,33.10
2017-12-02T11:59:47.654Z,36.00
2017-12-02T12:00:47.625Z,34.40
2017-12-02T12:01:47.602Z,31.70
2017-12-02T12:02:47.582Z,38.10
2017-12-02T12:03:47.604Z,33.70
2017-12-02T12:04:47.529Z,41.50
2017-12-02T12:05:47.558Z,33.80
2017-12-02T12:06:47.483Z,34.60
2017-12-02T12:07:47.513Z,31.30
2017-12-02T12:08:47.441Z,33.70
2017-12-02T12:09:47.441Z,46.40
2017-12-02T12:10:47.392Z,44.10
2017-12-02T12:11:47.471Z,37.70
2017-12-02T12:12:47.354Z,40.00
2017-12-02T12:13:47.374Z,38.50
2017-12-02T12:14:47.293Z,38.80
2017-12-02T12:15:47.323Z,33.50
2017-12-02T12:16:47.248Z,39.90
2017-12-02T12:17:47.274Z,41.70
2017-12-02T12:18:47.205Z,40.00
2017-12-02T12:19:47.216Z,39.70
2017-12-02T12:20:47.165Z,43.00
2017-12-02T12:21:47.234Z,46.50
2017-12-02T12:22:47.109Z,44.00
2017-12-02T12:23:47.141Z,42.10
2017-12-02T12:24:47.069Z,44.00
2017-12-02T12:25:47.041Z,44.10
2017-12-02T12:26:47.026Z,45.80
2017-12-02T12:27:46.997Z,43.40
2017-12-02T12:28:46.973Z,47.30
2017-12-02T12:29:47.012Z,53.00
2017-12-02T12:30:46.924Z,51.40
2017-12-02T12:31:46.903Z,48.80
2017-12-02T12:32:46.878Z,48.20
2017-12-02T12:33:46.862Z,44.10
2017-12-02T12:34:46.834Z,46.90
2017-12-02T12:35:46.815Z,52.90
2017-12-02T12:36:46.839Z,49.30
2017-12-02T12:37:46.777Z,46.10
2017-12-02T12:38:46.740Z,52.50
2017-12-02T12:39:46.719Z,57.00
2017-12-02T12:40:46.696Z,58.70
2017-12-02T12:41:46.669Z,52.40
2017-12-02T12:42:46.647Z,48.60
2017-12-02T12:43:46.625Z,46.20